Time;durP1;ratioP1;P1;durP2;ratioP2;P2;SDS_P1;SDS_P2;PMS_P1;PMS_P2;Temp;Humidity;BMP_temperature;BMP_pressure;BME280_temperature;BME280_humidity;BME280_pressure;Samples;Min_cycle;Max_cycle;Signal;HPM_P1;HPM_P2
2021/04/12 00:02:02;;;;;;;2.45;1.33;;;3.50;99.90;;;;;;5039200;28;20441;-73
2021/04/12 00:04:38;;;;;;;2.67;1.08;;;3.40;99.90;;;;;;5033501;28;20073;-74
2021/04/12 00:07:35;;;;;;;1.85;1.52;;;3.40;99.90;;;;;;5050460;28;20500;-74
2021/04/12 00:10:30;;;;;;;4.82;1.13;;;3.50;99.90;;;;;;5039230;28;20208;-74
2021/04/12 00:13:09;;;;;;;3.35;1.52;;;3.40;99.90;;;;;;5032741;28;20071;-74
2021/04/12 00:15:48;;;;;;;4.57;0.98;;;3.40;99.90;;;;;;5032349;28;20572;-74
2021/04/12 00:18:26;;;;;;;1.65;1.10;;;3.30;99.90;;;;;;5036974;28;20029;-74
2021/04/12 00:20:59;;;;;;;3.85;1.13;;;3.30;99.90;;;;;;5032797;28;20022;-74
2021/04/12 00:23:42;;;;;;;0.82;0.70;;;3.20;99.90;;;;;;5029543;28;20087;-73
2021/04/12 00:26:11;;;;;;;4.10;1.38;;;3.20;99.90;;;;;;5031245;28;20029;-73
2021/04/12 00:28:46;;;;;;;1.20;1.10;;;3.20;99.90;;;;;;5030104;28;20034;-74
2021/04/12 00:31:41;;;;;;;2.00;1.15;;;3.20;99.90;;;;;;5030950;28;20040;-73
2021/04/12 00:34:17;;;;;;;5.13;1.45;;;3.20;99.90;;;;;;5030152;28;20133;-73
2021/04/12 00:36:49;;;;;;;6.75;1.20;;;3.20;99.90;;;;;;5031765;28;20360;-73
2021/04/12 00:39:36;;;;;;;2.17;0.90;;;3.10;99.90;;;;;;5033417;28;20029;-73
2021/04/12 00:42:37;;;;;;;6.57;1.23;;;3.10;99.90;;;;;;5034835;28;20013;-72
2021/04/12 00:45:06;;;;;;;2.70;1.30;;;3.10;99.90;;;;;;5016904;28;20040;-73
2021/04/12 00:48:06;;;;;;;1.73;1.10;;;3.10;99.90;;;;;;5035115;28;20475;-73
2021/04/12 00:51:07;;;;;;;2.40;1.10;;;3.10;99.90;;;;;;5034619;28;20040;-72
2021/04/12 00:53:44;;;;;;;2.63;1.30;;;3.00;99.90;;;;;;5012437;28;20030;-72
2021/04/12 00:56:30;;;;;;;8.73;2.90;;;3.10;99.90;;;;;;5032045;28;20398;-75
2021/04/12 00:59:10;;;;;;;3.22;1.15;;;3.00;99.90;;;;;;5033732;28;20030;-74
2021/04/12 01:01:59;;;;;;;4.32;1.33;;;3.00;99.90;;;;;;5033348;28;20044;-72
2021/04/12 01:04:44;;;;;;;4.63;1.33;;;3.00;99.90;;;;;;5025412;28;20031;-73
2021/04/12 01:07:29;;;;;;;1.58;1.08;;;2.90;99.90;;;;;;5035788;28;20033;-74
2021/04/12 01:10:09;;;;;;;1.30;1.20;;;2.90;99.90;;;;;;5035340;28;20440;-74
2021/04/12 01:12:59;;;;;;;3.20;1.33;;;2.90;99.90;;;;;;5051190;28;20047;-73
2021/04/12 01:16:11;;;;;;;4.15;1.20;;;2.90;99.90;;;;;;5035433;28;20040;-73
2021/04/12 01:18:51;;;;;;;2.08;1.00;;;2.90;99.90;;;;;;5035541;28;20500;-72
2021/04/12 01:21:48;;;;;;;4.15;1.45;;;2.90;99.90;;;;;;5034728;28;20135;-72
2021/04/12 01:24:37;;;;;;;5.88;1.67;;;2.90;99.90;;;;;;5049658;28;20393;-73
2021/04/12 01:27:21;;;;;;;2.53;1.45;;;2.90;99.90;;;;;;5032629;28;20056;-73
2021/04/12 01:30:15;;;;;;;3.83;2.13;;;2.90;99.90;;;;;;5033385;28;20493;-72
2021/04/12 01:33:14;;;;;;;10.35;1.80;;;2.90;99.90;;;;;;5033143;28;20060;-73
2021/04/12 01:36:22;;;;;;;3.88;1.80;;;2.90;99.90;;;;;;5027490;28;20049;-72
2021/04/12 01:38:55;;;;;;;6.45;1.27;;;2.90;99.90;;;;;;5025546;28;20053;-74
2021/04/12 01:41:32;;;;;;;9.82;3.33;;;3.00;99.90;;;;;;5031408;28;20025;-73
2021/04/12 01:44:11;;;;;;;2.63;1.58;;;3.00;99.90;;;;;;5030014;28;20029;-73
2021/04/12 01:47:03;;;;;;;3.47;1.73;;;3.00;99.90;;;;;;5030648;28;20129;-73
2021/04/12 01:49:54;;;;;;;4.60;1.55;;;3.00;99.90;;;;;;5031619;28;20490;-73
2021/04/12 01:52:34;;;;;;;1.80;1.42;;;3.10;99.90;;;;;;5042688;28;20033;-73
2021/04/12 01:55:31;;;;;;;5.15;2.00;;;3.00;99.90;;;;;;5030093;28;20036;-73
2021/04/12 01:58:18;;;;;;;7.97;1.58;;;3.00;99.90;;;;;;5032806;28;20041;-73
2021/04/12 02:00:51;;;;;;;3.28;1.65;;;3.00;99.90;;;;;;5033352;28;20072;-73
2021/04/12 02:04:06;;;;;;;2.90;1.10;;;3.00;99.90;;;;;;5032434;28;20112;-73
2021/04/12 02:06:46;;;;;;;4.35;1.25;;;3.10;99.90;;;;;;5024390;28;20121;-73
2021/04/12 02:09:42;;;;;;;2.20;0.93;;;3.10;99.90;;;;;;5031789;28;20367;-73
2021/04/12 02:12:50;;;;;;;4.03;1.70;;;3.10;99.90;;;;;;5034555;28;20513;-73
2021/04/12 02:15:29;;;;;;;;;;;3.10;99.90;;;;;;5032291;28;20026;-73
2021/04/12 02:18:44;;;;;;;1.58;0.70;;;3.10;99.90;;;;;;5045806;28;19913;-74
2021/04/12 02:21:30;;;;;;;4.15;0.60;;;3.10;99.90;;;;;;5012965;28;20438;-73
2021/04/12 02:24:25;;;;;;;0.85;0.52;;;3.20;99.90;;;;;;5048933;28;20025;-73
2021/04/12 02:27:06;;;;;;;2.63;0.52;;;3.20;99.90;;;;;;5031276;28;20026;-72
2021/04/12 02:29:55;;;;;;;1.25;0.38;;;3.30;99.90;;;;;;5033194;28;20029;-73
2021/04/12 02:32:53;;;;;;;0.52;0.35;;;3.30;99.90;;;;;;5033738;28;20358;-73
2021/04/12 02:35:52;;;;;;;2.40;0.40;;;3.40;99.90;;;;;;5041247;28;20021;-73
2021/04/12 02:38:40;;;;;;;1.10;0.20;;;3.40;99.90;;;;;;5054997;28;20033;-73
2021/04/12 02:41:39;;;;;;;0.55;0.30;;;3.40;99.90;;;;;;5052904;28;20029;-72
2021/04/12 02:44:41;;;;;;;1.67;0.40;;;3.40;99.90;;;;;;5063319;28;20025;-72
2021/04/12 02:47:15;;;;;;;0.25;0.22;;;3.40;99.90;;;;;;5032851;28;20100;-73
2021/04/12 02:50:18;;;;;;;0.10;0.10;;;3.50;99.90;;;;;;5034801;28;20033;-74
2021/04/12 02:53:28;;;;;;;0.60;0.38;;;3.50;99.90;;;;;;5028490;28;20474;-73
2021/04/12 02:56:27;;;;;;;0.30;0.22;;;3.50;99.90;;;;;;5046947;28;20091;-72
2021/04/12 02:59:05;;;;;;;1.77;0.20;;;3.60;99.90;;;;;;5047941;28;20029;-74
2021/04/12 03:01:50;;;;;;;5.85;0.68;;;3.60;99.90;;;;;;5032528;28;20524;-72
2021/04/12 03:04:53;;;;;;;0.38;0.25;;;3.70;99.90;;;;;;5032811;28;20032;-73
2021/04/12 03:07:38;;;;;;;15.75;0.82;;;3.80;99.90;;;;;;5031708;28;20037;-74
2021/04/12 03:10:18;;;;;;;3.85;0.68;;;3.80;99.90;;;;;;5031417;28;20037;-74
2021/04/12 03:13:17;;;;;;;5.65;0.28;;;3.90;99.90;;;;;;5030783;28;20032;-74
2021/04/12 03:15:51;;;;;;;3.00;0.40;;;3.90;99.90;;;;;;5032509;28;20105;-74
2021/04/12 03:18:17;;;;;;;2.25;0.57;;;3.90;99.90;;;;;;5032415;28;20045;-74
2021/04/12 03:21:20;;;;;;;6.28;0.60;;;3.90;99.90;;;;;;5032113;28;20029;-73
2021/04/12 03:24:04;;;;;;;1.83;0.38;;;3.80;99.90;;;;;;5046633;28;20363;-73
2021/04/12 03:27:04;;;;;;;2.17;0.40;;;3.80;99.90;;;;;;5024907;28;20095;-73
2021/04/12 03:29:39;;;;;;;1.08;0.50;;;3.70;99.90;;;;;;5030157;28;20033;-73
2021/04/12 03:32:33;;;;;;;3.25;0.28;;;3.60;99.90;;;;;;5031011;28;20454;-75
2021/04/12 03:35:09;;;;;;;5.85;0.93;;;3.60;99.90;;;;;;5031763;28;20029;-72
2021/04/12 03:37:57;;;;;;;4.90;0.43;;;3.50;99.90;;;;;;5033298;28;20482;-73
2021/04/12 03:40:35;;;;;;;0.50;0.30;;;3.50;99.90;;;;;;5032777;28;20064;-72
2021/04/12 03:43:22;;;;;;;2.63;0.55;;;3.40;99.90;;;;;;5031072;28;20100;-73
2021/04/12 03:46:06;;;;;;;2.00;0.30;;;3.40;99.90;;;;;;5029936;28;20036;-73
2021/04/12 03:48:37;;;;;;;2.80;0.45;;;3.40;99.90;;;;;;5027433;28;20493;-74
2021/04/12 03:51:28;;;;;;;2.17;0.60;;;3.40;99.90;;;;;;5030352;28;20107;-73
2021/04/12 03:54:11;;;;;;;1.08;0.30;;;3.30;99.90;;;;;;5033290;28;20056;-74
2021/04/12 03:57:00;;;;;;;1.05;0.22;;;3.30;99.90;;;;;;5032370;28;20037;-73
2021/04/12 03:59:58;;;;;;;1.20;0.88;;;3.30;99.90;;;;;;5030253;28;20025;-73
2021/04/12 04:02:51;;;;;;;1.85;0.73;;;3.30;99.90;;;;;;5026163;28;20375;-73
2021/04/12 04:05:38;;;;;;;1.05;0.45;;;3.20;99.90;;;;;;5032485;28;20482;-74
2021/04/12 04:08:21;;;;;;;2.35;0.47;;;3.20;99.90;;;;;;5032594;28;20103;-74
2021/04/12 04:11:32;;;;;;;0.80;0.40;;;3.20;99.90;;;;;;5027270;28;20026;-73
2021/04/12 04:14:01;;;;;;;1.10;0.30;;;3.20;99.90;;;;;;5033357;28;20022;-73
2021/04/12 04:16:49;;;;;;;0.52;0.47;;;3.20;99.90;;;;;;5035579;28;20025;-73
2021/04/12 04:19:41;;;;;;;0.40;0.38;;;3.10;99.90;;;;;;5050664;28;20068;-73
2021/04/12 04:22:25;;;;;;;0.77;0.43;;;3.10;99.90;;;;;;5036482;28;20047;-71
2021/04/12 04:25:03;;;;;;;2.25;0.70;;;3.10;99.90;;;;;;5035998;28;20025;-72
2021/04/12 04:27:55;;;;;;;1.15;0.45;;;3.10;99.90;;;;;;5037362;28;20119;-73
2021/04/12 04:30:24;;;;;;;3.72;0.70;;;3.10;99.90;;;;;;5037036;28;20032;-72
2021/04/12 04:33:07;;;;;;;0.50;0.50;;;3.00;99.90;;;;;;5036359;28;20025;-72
2021/04/12 04:35:38;;;;;;;1.17;0.93;;;3.00;99.90;;;;;;5035458;28;20025;-71
2021/04/12 04:38:44;;;;;;;0.52;0.30;;;3.00;99.90;;;;;;5034291;28;20038;-71
2021/04/12 04:41:34;;;;;;;8.30;0.73;;;3.00;99.90;;;;;;5036081;28;20041;-71
2021/04/12 04:44:33;;;;;;;1.58;1.05;;;3.00;99.90;;;;;;5033844;28;20061;-72
2021/04/12 04:47:29;;;;;;;2.72;0.77;;;2.90;99.90;;;;;;5035359;28;20041;-72
2021/04/12 04:50:13;;;;;;;2.25;0.90;;;2.90;99.90;;;;;;5030862;28;20037;-72
2021/04/12 04:53:16;;;;;;;3.35;0.80;;;2.90;99.90;;;;;;5035488;28;20075;-71
2021/04/12 04:55:53;;;;;;;2.35;1.20;;;2.90;99.90;;;;;;5034942;28;20036;-72
2021/04/12 04:58:39;;;;;;;6.28;1.30;;;2.80;99.90;;;;;;5034521;28;20532;-71
2021/04/12 05:01:25;;;;;;;5.03;1.10;;;2.80;99.90;;;;;;5019706;28;20053;-72
2021/04/12 05:04:17;;;;;;;2.25;1.27;;;2.90;99.90;;;;;;5048831;28;20045;-72
2021/04/12 05:06:48;;;;;;;1.60;1.27;;;2.90;99.90;;;;;;5034788;28;20044;-72
2021/04/12 05:09:33;;;;;;;2.67;1.27;;;3.00;99.90;;;;;;5028880;28;20497;-72
2021/04/12 05:12:48;;;;;;;3.28;1.65;;;3.00;99.90;;;;;;5031841;28;20090;-72
2021/04/12 05:15:55;;;;;;;8.88;1.23;;;3.10;99.90;;;;;;5022587;28;20494;-72
2021/04/12 05:18:54;;;;;;;4.25;0.90;;;3.10;99.90;;;;;;5035015;28;20087;-72
2021/04/12 05:21:45;;;;;;;2.80;0.85;;;3.20;99.90;;;;;;5031972;28;20164;-72
2021/04/12 05:24:25;;;;;;;2.70;1.23;;;3.20;99.90;;;;;;5033086;28;20024;-72
2021/04/12 05:27:09;;;;;;;9.68;1.80;;;3.30;99.90;;;;;;5032211;28;20041;-72
2021/04/12 05:30:01;;;;;;;3.20;0.98;;;3.30;99.90;;;;;;5033599;28;20431;-72
2021/04/12 05:32:51;;;;;;;1.98;0.90;;;3.30;99.90;;;;;;5035143;28;20378;-73
2021/04/12 05:35:38;;;;;;;5.47;1.13;;;3.40;99.90;;;;;;5032873;28;20107;-73
2021/04/12 05:38:41;;;;;;;1.80;0.87;;;3.50;99.90;;;;;;5030034;28;20045;-73
2021/04/12 05:41:21;;;;;;;7.28;1.80;;;3.60;99.90;;;;;;5031452;28;20034;-73
2021/04/12 05:44:23;;;;;;;1.85;0.93;;;3.60;99.90;;;;;;5029260;28;20505;-72
2021/04/12 05:47:26;;;;;;;2.72;1.40;;;3.60;99.90;;;;;;5033162;28;20034;-72
2021/04/12 05:50:11;;;;;;;2.45;1.35;;;3.60;99.90;;;;;;5046553;28;20045;-72
2021/04/12 05:52:58;;;;;;;2.05;1.20;;;3.60;99.90;;;;;;5032759;28;20030;-72
2021/04/12 05:55:53;;;;;;;1.33;1.23;;;3.70;99.90;;;;;;5048633;28;20030;-75
2021/04/12 05:58:46;;;;;;;6.45;1.58;;;3.70;99.90;;;;;;5030215;28;20079;-74
2021/04/12 06:01:50;;;;;;;2.30;1.30;;;3.70;99.90;;;;;;5032941;28;20065;-74
2021/04/12 06:04:30;;;;;;;1.42;1.15;;;3.70;99.90;;;;;;5034602;28;20034;-74
2021/04/12 06:07:35;;;;;;;2.88;1.13;;;3.70;99.90;;;;;;5034742;28;20078;-74
2021/04/12 06:10:24;;;;;;;2.17;1.35;;;3.80;99.90;;;;;;4974196;28;20049;-75
2021/04/12 06:13:21;;;;;;;3.50;1.00;;;3.90;99.90;;;;;;4981085;28;20031;-75
2021/04/12 06:15:49;;;;;;;1.83;1.40;;;4.10;99.90;;;;;;5024203;28;20041;-74
2021/04/12 06:18:31;;;;;;;5.60;1.35;;;4.20;99.90;;;;;;5033753;28;20018;-74
2021/04/12 06:21:25;;;;;;;1.58;1.40;;;4.40;99.90;;;;;;5032687;28;20029;-74
2021/04/12 06:24:01;;;;;;;3.63;1.60;;;4.70;99.90;;;;;;5032716;28;20048;-73
2021/04/12 06:27:15;;;;;;;2.65;1.25;;;4.90;99.90;;;;;;5034222;28;20107;-74
2021/04/12 06:29:54;;;;;;;2.15;1.10;;;5.10;99.90;;;;;;5031307;28;20053;-74
2021/04/12 06:32:43;;;;;;;6.35;1.23;;;5.40;99.90;;;;;;5032341;28;20486;-73
2021/04/12 06:35:49;;;;;;;3.67;1.52;;;5.40;99.90;;;;;;5032557;28;20445;-73
2021/04/12 06:38:36;;;;;;;4.93;1.30;;;5.40;99.90;;;;;;5034172;28;20114;-74
2021/04/12 06:41:26;;;;;;;3.47;1.10;;;5.50;99.90;;;;;;5032581;28;20512;-74
2021/04/12 06:44:28;;;;;;;1.63;0.85;;;5.60;99.90;;;;;;5033884;28;20512;-74
2021/04/12 06:47:35;;;;;;;4.85;0.75;;;5.20;99.90;;;;;;5033454;28;20033;-74
2021/04/12 06:50:38;;;;;;;2.10;0.57;;;4.40;99.90;;;;;;5032620;28;20060;-74
2021/04/12 06:53:28;;;;;;;3.63;1.60;;;4.00;99.90;;;;;;5032572;28;20083;-73
2021/04/12 06:55:53;;;;;;;3.13;0.65;;;3.70;99.90;;;;;;5031661;28;20056;-73
2021/04/12 06:58:49;;;;;;;2.45;0.93;;;3.60;99.90;;;;;;5032341;28;20055;-73
2021/04/12 07:01:42;;;;;;;2.30;0.80;;;3.60;99.90;;;;;;5012611;28;20542;-73
2021/04/12 07:04:41;;;;;;;4.80;0.90;;;3.50;99.90;;;;;;5028160;28;20036;-73
2021/04/12 07:07:56;;;;;;;1.45;0.80;;;3.60;99.90;;;;;;5033638;28;20148;-72
2021/04/12 07:10:55;;;;;;;2.65;1.10;;;3.60;99.90;;;;;;5012019;28;20383;-73
2021/04/12 07:13:48;;;;;;;3.70;1.10;;;3.70;99.90;;;;;;5032776;28;20486;-73
2021/04/12 07:16:47;;;;;;;3.55;1.30;;;3.80;99.90;;;;;;5033149;28;20103;-73
2021/04/12 07:19:48;;;;;;;2.00;1.00;;;3.90;99.90;;;;;;5029474;28;20042;-73
2021/04/12 07:22:55;;;;;;;2.38;1.00;;;3.90;99.90;;;;;;5033245;28;20429;-73
2021/04/12 07:25:49;;;;;;;11.95;0.88;;;4.00;99.90;;;;;;5018342;28;20486;-74
2021/04/12 07:28:55;;;;;;;7.03;1.10;;;4.10;99.90;;;;;;5035966;28;20100;-74
2021/04/12 07:32:05;;;;;;;2.40;0.73;;;4.20;99.90;;;;;;5034413;28;20096;-74
2021/04/12 07:34:54;;;;;;;3.17;1.10;;;4.30;99.90;;;;;;5028741;28;20452;-73
2021/04/12 07:37:39;;;;;;;1.58;0.85;;;4.70;99.90;;;;;;5053428;28;20032;-73
2021/04/12 07:40:57;;;;;;;0.80;0.80;;;5.00;99.90;;;;;;5053255;28;20478;-73
2021/04/12 07:43:38;;;;;;;3.63;1.05;;;5.40;99.90;;;;;;5049756;28;20389;-73
2021/04/12 07:46:18;;;;;;;9.68;1.13;;;5.50;99.90;;;;;;5052920;28;20033;-73
2021/04/12 07:49:03;;;;;;;2.67;1.05;;;5.70;99.90;;;;;;5045917;28;20100;-72
2021/04/12 07:51:43;;;;;;;1.13;0.90;;;5.80;99.90;;;;;;5032762;28;20041;-73
2021/04/12 07:54:21;;;;;;;3.40;0.80;;;5.90;99.90;;;;;;5032994;28;20104;-73
2021/04/12 07:56:49;;;;;;;3.58;0.80;;;6.10;99.90;;;;;;5033083;28;20036;-72
2021/04/12 07:59:17;;;;;;;5.50;0.95;;;6.30;99.90;;;;;;5032624;28;20036;-73
2021/04/12 08:02:07;;;;;;;4.28;0.85;;;6.30;99.90;;;;;;5030526;28;20030;-72
2021/04/12 08:04:38;;;;;;;5.75;0.63;;;6.50;99.90;;;;;;5031818;28;20048;-73
2021/04/12 08:07:42;;;;;;;2.85;1.02;;;6.60;99.90;;;;;;5043804;28;20065;-74
2021/04/12 08:10:35;;;;;;;1.33;0.60;;;6.80;99.90;;;;;;5047800;28;20038;-73
2021/04/12 08:13:22;;;;;;;4.03;0.90;;;6.90;99.90;;;;;;5017687;28;20064;-73
2021/04/12 08:16:19;;;;;;;7.40;1.67;;;6.90;99.90;;;;;;5032616;28;20482;-74
2021/04/12 08:19:15;;;;;;;4.38;1.55;;;6.70;99.90;;;;;;5043694;28;20112;-74
2021/04/12 08:22:18;;;;;;;2.00;1.02;;;6.40;99.90;;;;;;5028082;28;20466;-74
2021/04/12 08:25:04;;;;;;;2.05;1.58;;;6.30;99.90;;;;;;5031836;28;20061;-74
2021/04/12 08:28:07;;;;;;;2.92;1.77;;;6.00;99.90;;;;;;5029276;28;20482;-73
2021/04/12 08:30:54;;;;;;;2.00;1.35;;;5.90;99.90;;;;;;5036022;28;20486;-74
2021/04/12 08:33:42;;;;;;;7.03;2.00;;;5.90;99.90;;;;;;5041561;28;20052;-75
2021/04/12 08:36:34;;;;;;;6.30;1.63;;;5.90;99.90;;;;;;5012882;28;20058;-74
2021/04/12 08:39:28;;;;;;;3.47;1.58;;;6.10;99.90;;;;;;5012837;28;20536;-74
2021/04/12 08:42:21;;;;;;;3.35;1.20;;;6.30;99.90;;;;;;5032911;28;20083;-74
2021/04/12 08:45:24;;;;;;;5.28;1.38;;;6.20;99.90;;;;;;5049085;28;20024;-74
2021/04/12 08:48:10;;;;;;;1.60;1.20;;;6.00;99.90;;;;;;5045265;28;20030;-75
2021/04/12 08:50:44;;;;;;;1.85;0.90;;;5.30;99.90;;;;;;5034936;28;20029;-75
2021/04/12 08:53:36;;;;;;;1.90;0.90;;;5.00;99.90;;;;;;5033699;28;20425;-75
2021/04/12 08:56:17;;;;;;;2.97;0.77;;;4.60;99.90;;;;;;5052256;28;20499;-75
2021/04/12 08:59:17;;;;;;;0.88;0.88;;;4.40;99.90;;;;;;5062622;28;20076;-74
2021/04/12 09:02:16;;;;;;;2.78;1.50;;;4.10;99.90;;;;;;5046208;28;20030;-76
2021/04/12 09:04:59;;;;;;;1.60;1.00;;;4.10;99.90;;;;;;5019226;28;20022;-75
2021/04/12 09:07:43;;;;;;;1.52;1.27;;;4.00;99.90;;;;;;5021100;28;20124;-74
2021/04/12 09:10:42;;;;;;;1.20;1.10;;;3.80;99.90;;;;;;5054816;28;20036;-75
2021/04/12 09:13:46;;;;;;;7.40;2.00;;;3.80;99.90;;;;;;5050094;28;20080;-73
2021/04/12 09:16:17;;;;;;;2.03;1.10;;;3.80;99.90;;;;;;5035366;28;20094;-76
2021/04/12 09:19:21;;;;;;;1.27;1.05;;;4.00;99.90;;;;;;5035579;28;20030;-76
2021/04/12 09:22:08;;;;;;;0.80;0.70;;;4.00;99.90;;;;;;4985592;28;20088;-73
2021/04/12 09:24:43;;;;;;;2.38;0.93;;;4.00;99.90;;;;;;5042617;28;20018;-74
2021/04/12 09:27:19;;;;;;;3.25;1.77;;;4.00;99.90;;;;;;5037499;28;20043;-74
2021/04/12 09:30:13;;;;;;;2.08;1.00;;;4.00;99.90;;;;;;5030479;28;20117;-74
2021/04/12 09:33:05;;;;;;;4.85;1.05;;;4.10;99.90;;;;;;5036715;28;20091;-74
2021/04/12 09:36:12;;;;;;;2.40;1.60;;;4.20;99.90;;;;;;5033025;28;20033;-72
2021/04/12 09:38:56;;;;;;;3.13;0.50;;;4.50;99.90;;;;;;5032291;28;20037;-72
2021/04/12 09:41:52;;;;;;;0.47;0.45;;;4.60;99.90;;;;;;5032618;28;20064;-72
2021/04/12 09:44:40;;;;;;;1.48;0.80;;;4.80;99.90;;;;;;5033670;28;20478;-73
2021/04/12 09:47:20;;;;;;;2.15;0.95;;;4.80;99.90;;;;;;5033887;28;20029;-72
2021/04/12 09:49:46;;;;;;;1.30;1.20;;;5.00;99.90;;;;;;5034814;28;20033;-72
2021/04/12 09:52:33;;;;;;;1.25;1.15;;;5.10;99.90;;;;;;5032672;28;20080;-73
2021/04/12 09:55:27;;;;;;;1.60;1.50;;;5.50;99.90;;;;;;5033184;28;20038;-73
2021/04/12 09:58:21;;;;;;;2.28;1.75;;;6.00;99.90;;;;;;5034618;28;20087;-73
2021/04/12 10:01:13;;;;;;;1.83;1.73;;;6.20;99.90;;;;;;5226868;23;20041;-79
2021/04/12 10:03:57;;;;;;;2.33;1.92;;;6.10;99.90;;;;;;4994807;28;20037;-82
2021/04/12 10:07:04;;;;;;;2.35;2.05;;;6.20;99.90;;;;;;4996962;28;20061;-77
2021/04/12 10:09:51;;;;;;;2.00;1.90;;;6.40;99.90;;;;;;4995914;28;20026;-77
2021/04/12 10:12:53;;;;;;;1.90;1.80;;;6.40;99.90;;;;;;4998708;28;20100;-78
2021/04/12 10:15:30;;;;;;;2.10;1.70;;;6.40;99.90;;;;;;5011861;28;20061;-81
2021/04/12 10:18:22;;;;;;;1.42;1.33;;;6.60;99.90;;;;;;4997086;28;20073;-79
2021/04/12 10:21:04;;;;;;;2.35;2.15;;;6.70;99.90;;;;;;5010665;28;20022;-77
2021/04/12 10:23:34;;;;;;;3.13;2.20;;;6.80;99.90;;;;;;4995818;28;20033;-83
2021/04/12 10:26:18;;;;;;;1.80;1.70;;;7.10;99.90;;;;;;4995134;28;20500;-79
2021/04/12 10:28:43;;;;;;;1.98;1.48;;;7.30;99.90;;;;;;4991998;28;20042;-84
2021/04/12 10:31:28;;;;;;;1.65;1.33;;;7.50;99.90;;;;;;4997323;28;20033;-77
2021/04/12 10:34:17;;;;;;;2.75;1.48;;;7.70;99.90;;;;;;4997149;28;20429;-82
2021/04/12 10:37:00;;;;;;;2.05;1.38;;;7.90;99.90;;;;;;4995143;28;20042;-83
2021/04/12 10:39:59;;;;;;;1.33;1.23;;;8.20;99.90;;;;;;5000878;28;20462;-90
2021/04/12 10:42:37;;;;;;;7.00;1.23;;;8.20;99.90;;;;;;4998532;28;20443;-80
2021/04/12 10:45:23;;;;;;;;;;;8.60;99.90;;;;;;5011159;28;20021;-78
2021/04/12 10:48:01;;;;;;;1.00;1.00;;;8.70;99.90;;;;;;4995083;28;19916;-79
2021/04/12 10:50:32;;;;;;;1.30;1.25;;;8.70;99.90;;;;;;4991835;28;20097;-82
2021/04/12 10:53:34;;;;;;;1.17;1.17;;;8.80;99.90;;;;;;4995482;28;20481;-83
2021/04/12 10:56:08;;;;;;;1.17;1.10;;;8.70;99.90;;;;;;4989034;28;20081;-84
2021/04/12 10:58:46;;;;;;;4.63;1.05;;;8.90;99.90;;;;;;4986129;28;20486;-81
2021/04/12 11:01:32;;;;;;;6.88;1.55;;;8.90;99.90;;;;;;4994851;28;20042;-85
2021/04/12 11:04:11;;;;;;;2.03;1.50;;;9.00;99.90;;;;;;4995637;28;20030;-80
2021/04/12 11:07:06;;;;;;;3.20;1.60;;;8.70;99.90;;;;;;4996010;28;20043;-84
2021/04/12 11:09:48;;;;;;;6.03;2.00;;;8.70;99.90;;;;;;4995130;28;20026;-79
2021/04/12 11:12:25;;;;;;;5.32;1.70;;;9.20;99.90;;;;;;4995700;28;20026;-78
2021/04/12 11:14:57;;;;;;;4.53;1.65;;;9.40;99.90;;;;;;4997552;28;20041;-76
2021/04/12 11:17:44;;;;;;;2.90;2.08;;;9.50;99.90;;;;;;4993883;28;20037;-80
2021/04/12 11:20:26;;;;;;;5.85;1.50;;;9.60;99.90;;;;;;4998642;28;20026;-76
2021/04/12 11:23:15;;;;;;;1.50;1.30;;;9.90;99.90;;;;;;4983764;28;20105;-77
2021/04/12 11:25:51;;;;;;;1.48;1.38;;;10.00;99.90;;;;;;5008802;28;20031;-76
2021/04/12 11:28:24;;;;;;;2.83;1.52;;;9.90;99.90;;;;;;5010290;28;20057;-80
2021/04/12 11:31:15;;;;;;;3.25;1.25;;;9.50;99.90;;;;;;5013022;28;20033;-78
2021/04/12 11:33:49;;;;;;;1.58;0.93;;;8.80;99.90;;;;;;5007807;28;20030;-78
2021/04/12 11:36:23;;;;;;;3.58;0.90;;;7.80;99.90;;;;;;5003553;28;20098;-76
2021/04/12 11:39:06;;;;;;;1.75;1.30;;;7.10;99.90;;;;;;4996672;28;20062;-77
2021/04/12 11:41:41;;;;;;;3.65;1.10;;;7.10;99.90;;;;;;4989909;28;20471;-79
2021/04/12 11:44:13;;;;;;;1.75;0.73;;;7.00;99.90;;;;;;4995230;28;20035;-77
2021/04/12 11:47:00;;;;;;;1.90;1.33;;;6.80;99.90;;;;;;5004228;28;20037;-77
2021/04/12 11:49:40;;;;;;;1.23;0.90;;;6.90;99.90;;;;;;4992693;28;20034;-78
2021/04/12 11:52:23;;;;;;;1.65;0.70;;;7.20;99.90;;;;;;4991802;28;20030;-77
2021/04/12 11:55:10;;;;;;;1.30;0.75;;;7.40;99.90;;;;;;5003678;28;20027;-77
2021/04/12 11:57:54;;;;;;;1.10;1.00;;;7.50;99.90;;;;;;4991768;28;20049;-76
2021/04/12 12:00:47;;;;;;;0.63;0.47;;;7.80;99.90;;;;;;5005342;28;20049;-78
2021/04/12 12:03:33;;;;;;;0.80;0.68;;;8.00;99.90;;;;;;4992039;28;20042;-78
2021/04/12 12:06:07;;;;;;;1.13;0.77;;;8.10;99.90;;;;;;4991688;28;20027;-79
2021/04/12 12:08:33;;;;;;;2.58;0.60;;;8.30;99.90;;;;;;4992445;28;20089;-77
2021/04/12 12:11:06;;;;;;;4.22;1.10;;;8.20;99.90;;;;;;4993460;28;20098;-78
2021/04/12 12:13:40;;;;;;;1.83;0.93;;;8.30;99.90;;;;;;4992757;28;20027;-79
2021/04/12 12:16:27;;;;;;;7.50;1.00;;;8.60;99.90;;;;;;4993653;28;20034;-79
2021/04/12 12:19:01;;;;;;;5.30;1.10;;;8.70;99.90;;;;;;4991387;28;20698;-76
2021/04/12 12:21:34;;;;;;;0.98;0.68;;;8.90;99.90;;;;;;4993074;28;20014;-76
2021/04/12 12:24:25;;;;;;;1.13;0.70;;;9.10;99.90;;;;;;4998985;28;20474;-80
2021/04/12 12:27:04;;;;;;;2.33;0.90;;;9.00;99.90;;;;;;4998732;28;20038;-82
2021/04/12 12:29:51;;;;;;;1.50;0.63;;;8.90;99.90;;;;;;4985954;28;20096;-79
2021/04/12 12:32:22;;;;;;;2.90;1.38;;;8.90;99.90;;;;;;4998131;28;20026;-78
2021/04/12 12:35:08;;;;;;;2.45;1.75;;;8.30;99.90;;;;;;4992902;28;20114;-82
2021/04/12 12:38:01;;;;;;;2.38;0.90;;;8.00;99.90;;;;;;4997419;28;20031;-77
2021/04/12 12:43:35;;;;;;;1.67;1.30;;;9.00;99.90;;;;;;4994606;28;20038;-82
2021/04/12 12:46:15;;;;;;;5.72;1.00;;;9.40;99.90;;;;;;4996090;28;20113;-82
2021/04/12 12:48:52;;;;;;;1.38;0.95;;;9.70;99.90;;;;;;4991177;28;20034;-84
2021/04/12 12:51:40;;;;;;;4.63;1.00;;;9.60;99.90;;;;;;5012649;28;20109;-87
2021/04/12 12:54:21;;;;;;;1.63;1.13;;;9.50;99.90;;;;;;4996207;28;20029;-81
2021/04/12 12:56:49;;;;;;;0.98;0.98;;;9.50;99.90;;;;;;4997858;28;20030;-79
2021/04/12 12:59:26;;;;;;;2.65;0.95;;;10.00;99.90;;;;;;5011348;28;20794;-80
2021/04/12 13:01:54;;;;;;;2.25;0.90;;;10.40;99.80;;;;;;5000125;28;20052;-80
2021/04/12 13:04:26;;;;;;;1.75;0.98;;;10.50;99.90;;;;;;4996589;28;20058;-74
2021/04/12 13:06:55;;;;;;;2.90;1.05;;;10.40;99.10;;;;;;4978747;28;20497;-78
2021/04/12 13:09:30;;;;;;;4.68;1.08;;;10.50;99.00;;;;;;4993955;28;20057;-76
2021/04/12 13:12:08;;;;;;;3.50;1.02;;;10.00;98.70;;;;;;4997676;28;20030;-76
2021/04/12 13:14:38;;;;;;;1.38;1.05;;;9.40;99.90;;;;;;4995855;28;20041;-75
2021/04/12 13:17:34;;;;;;;2.97;1.45;;;9.10;99.90;;;;;;4995736;28;20031;-75
2021/04/12 13:20:04;;;;;;;6.78;1.50;;;8.80;99.90;;;;;;4991397;28;20073;-75
2021/04/12 13:22:40;;;;;;;3.00;1.75;;;8.40;99.90;;;;;;4995795;28;20037;-75
2021/04/12 13:25:22;;;;;;;3.78;2.38;;;8.50;99.90;;;;;;4996304;28;20015;-75
2021/04/12 13:28:12;;;;;;;3.97;1.60;;;9.00;99.90;;;;;;4994865;28;20050;-74
2021/04/12 13:30:42;;;;;;;5.47;1.75;;;9.40;99.90;;;;;;5007514;28;20041;-78
2021/04/12 13:33:23;;;;;;;4.65;1.40;;;9.50;99.90;;;;;;4995909;28;20486;-76
2021/04/12 13:35:57;;;;;;;6.53;1.67;;;9.30;99.90;;;;;;4988774;28;20058;-79
2021/04/12 13:38:29;;;;;;;2.65;1.35;;;9.50;99.90;;;;;;4993899;28;20030;-78
2021/04/12 13:41:09;;;;;;;4.00;1.23;;;10.00;99.90;;;;;;4996159;28;20026;-77
2021/04/12 13:43:38;;;;;;;3.30;0.82;;;10.10;99.90;;;;;;4993948;28;20050;-74
2021/04/12 13:46:15;;;;;;;5.28;1.55;;;10.50;99.90;;;;;;4994213;28;20027;-78
2021/04/12 13:48:47;;;;;;;1.15;1.05;;;10.70;99.90;;;;;;4995985;28;20028;-78
2021/04/12 13:51:29;;;;;;;2.35;1.25;;;11.10;99.90;;;;;;5002760;28;20027;-74
2021/04/12 13:54:06;;;;;;;4.85;1.70;;;11.20;99.90;;;;;;4994094;28;20030;-74
2021/04/12 13:56:47;;;;;;;2.95;1.10;;;11.30;99.90;;;;;;4995134;28;20058;-76
2021/04/12 13:59:19;;;;;;;6.40;1.00;;;11.40;99.90;;;;;;4995051;28;20022;-76
2021/04/12 14:02:04;;;;;;;4.18;1.17;;;11.30;98.70;;;;;;4995971;28;20042;-76
2021/04/12 14:04:40;;;;;;;3.35;0.95;;;10.60;99.40;;;;;;4996425;28;20034;-76
2021/04/12 14:07:22;;;;;;;4.25;1.42;;;10.20;97.80;;;;;;4996434;28;20535;-77
2021/04/12 14:09:52;;;;;;;1.52;1.10;;;9.60;98.00;;;;;;4995302;28;20034;-76
2021/04/12 14:12:28;;;;;;;8.25;1.13;;;9.40;99.90;;;;;;4994544;28;20023;-77
2021/04/12 14:14:57;;;;;;;1.58;0.90;;;9.10;99.60;;;;;;4995736;28;20121;-77
2021/04/12 14:17:27;;;;;;;2.55;1.17;;;8.80;99.20;;;;;;4993667;28;20045;-77
2021/04/12 14:20:21;;;;;;;2.45;1.25;;;8.40;99.90;;;;;;4996081;28;20153;-76
2021/04/12 14:22:50;;;;;;;3.55;1.40;;;8.30;99.90;;;;;;4993571;28;20038;-77
2021/04/12 14:25:37;;;;;;;1.63;1.17;;;8.50;99.90;;;;;;4992284;28;21030;-77
2021/04/12 14:28:13;;;;;;;8.75;1.17;;;8.60;99.90;;;;;;4991878;28;20030;-77
2021/04/12 14:30:48;;;;;;;1.42;1.10;;;8.30;99.80;;;;;;4992726;28;20065;-77
2021/04/12 14:33:31;;;;;;;2.28;1.15;;;8.30;99.90;;;;;;4993805;28;20473;-77
2021/04/12 14:36:20;;;;;;;11.57;1.38;;;8.20;99.90;;;;;;4987504;28;20393;-77
2021/04/12 14:38:51;;;;;;;3.45;0.93;;;8.20;99.90;;;;;;5005769;28;20054;-77
2021/04/12 14:41:24;;;;;;;7.25;1.30;;;8.60;99.90;;;;;;4997304;28;20026;-77